Portada
METAR-TAF:

METAR-TAF

Aeroports :

Bagdad, Iraq

latitud: 33-15-45N, longitud: 44-14-04E, altitud: 35 m

Observació

L'informe es va fer fa 29 minuts, a les 00:00 UTC
Vent 3 kt del Oest/Nord-Oest
Temperatura 11°C
Humitat 82%
Pressió 1018 hPa
Visibilitat: 5000 m
boirina

METAR: ORBI 280000Z 30003KT 5000 BR NSC 11/08 Q1018 NOSIG

Hora: 03:29 (00:29 UTC)

Pronòstic

L'informe es va fer fa 1 hora i 29 minuts, a les 23:00 UTC
Pronòstic vàlid del 28 a les 00 UTC al 28 a les 24 UTC
Vent 3 kt amb direcció variable
Visibilitat: 7000 m
Evolucionant progressivament
l' 28 a les 06 UTC al 28 a les 08 UTC
Núvols disperses a una alçada de 3000 ft
Cel ennuvolat a una alçada de 8000 ft

TAF: ORBI 272300Z 2800/2824 VRB03KT 7000 NSC BECMG 2806/2808 SCT030 BKN080

Observacions i pronòstics meteorològics de més de 4000 aeroports (METAR i TAF).

Les estacions disponibles són els punts grocs i vermells al mapa.

Posi el ratolí al punt desitjat per veure el nom de l'estació.

Feu clic per veure les observacions i els pronòstics meteorològics.

Per canviar el mapa: feu clic els botons verds amb una creu de color negre per apropar; al botó verd amb un guió per allunyar la imatge; o en les fletxes verdes per a mapes adjacents.


METAR-TAF: